sensor_id;sensor_type;location;lat;lon;timestamp;pressure;altitude;pressure_sealevel;temperature;humidity
74958;BME280;63741;42.624;26.276;2024-03-22T00:00:47;99931.44;;;7.37;75.83
74958;BME280;63741;42.624;26.276;2024-03-22T00:03:13;99931.34;;;7.24;78.70
74958;BME280;63741;42.624;26.276;2024-03-22T00:05:39;99933.88;;;7.25;78.90
74958;BME280;63741;42.624;26.276;2024-03-22T00:08:05;99929.31;;;7.13;78.59
74958;BME280;63741;42.624;26.276;2024-03-22T00:10:31;99928.31;;;7.16;79.39
74958;BME280;63741;42.624;26.276;2024-03-22T00:12:56;99922.09;;;7.17;79.34
74958;BME280;63741;42.624;26.276;2024-03-22T00:15:22;99922.84;;;7.19;77.71
74958;BME280;63741;42.624;26.276;2024-03-22T00:17:48;99917.50;;;7.20;76.20
74958;BME280;63741;42.624;26.276;2024-03-22T00:20:14;99914.44;;;6.98;78.05
74958;BME280;63741;42.624;26.276;2024-03-22T00:22:40;99914.72;;;6.93;78.01
74958;BME280;63741;42.624;26.276;2024-03-22T00:25:06;99923.00;;;7.01;78.05
74958;BME280;63741;42.624;26.276;2024-03-22T00:27:32;99921.56;;;6.96;77.63
74958;BME280;63741;42.624;26.276;2024-03-22T00:29:58;99915.91;;;6.88;79.65
74958;BME280;63741;42.624;26.276;2024-03-22T00:32:24;99920.34;;;6.71;79.99
74958;BME280;63741;42.624;26.276;2024-03-22T00:34:50;99918.94;;;6.66;79.54
74958;BME280;63741;42.624;26.276;2024-03-22T00:37:15;99925.19;;;6.63;78.90
74958;BME280;63741;42.624;26.276;2024-03-22T00:39:41;99924.09;;;6.51;74.64
74958;BME280;63741;42.624;26.276;2024-03-22T00:42:07;99921.34;;;6.69;75.27
74958;BME280;63741;42.624;26.276;2024-03-22T00:44:33;99920.09;;;6.76;71.77
74958;BME280;63741;42.624;26.276;2024-03-22T00:46:59;99924.25;;;6.80;70.41
74958;BME280;63741;42.624;26.276;2024-03-22T00:49:25;99925.38;;;6.44;68.83
74958;BME280;63741;42.624;26.276;2024-03-22T00:51:51;99926.84;;;6.34;68.37
74958;BME280;63741;42.624;26.276;2024-03-22T00:54:16;99930.53;;;6.46;68.09
74958;BME280;63741;42.624;26.276;2024-03-22T00:56:43;99933.44;;;6.25;67.61
74958;BME280;63741;42.624;26.276;2024-03-22T00:59:09;99935.63;;;6.17;68.74
74958;BME280;63741;42.624;26.276;2024-03-22T01:01:35;99935.38;;;6.22;67.35
74958;BME280;63741;42.624;26.276;2024-03-22T01:04:01;99938.94;;;6.05;67.89
74958;BME280;63741;42.624;26.276;2024-03-22T01:06:26;99935.69;;;6.00;67.26
74958;BME280;63741;42.624;26.276;2024-03-22T01:08:53;99936.22;;;6.22;67.69
74958;BME280;63741;42.624;26.276;2024-03-22T01:11:19;99940.94;;;6.00;67.04
74958;BME280;63741;42.624;26.276;2024-03-22T01:13:45;99947.06;;;5.83;68.12
74958;BME280;63741;42.624;26.276;2024-03-22T01:16:11;99943.75;;;5.79;67.42
74958;BME280;63741;42.624;26.276;2024-03-22T01:18:37;99941.38;;;5.75;67.29
74958;BME280;63741;42.624;26.276;2024-03-22T01:21:03;99948.84;;;5.82;69.17
74958;BME280;63741;42.624;26.276;2024-03-22T01:23:29;99950.91;;;5.93;67.42
74958;BME280;63741;42.624;26.276;2024-03-22T01:25:55;99939.53;;;6.10;67.31
74958;BME280;63741;42.624;26.276;2024-03-22T01:28:21;99943.72;;;5.97;67.10
74958;BME280;63741;42.624;26.276;2024-03-22T01:30:47;99948.84;;;6.31;65.45
74958;BME280;63741;42.624;26.276;2024-03-22T01:33:13;99948.69;;;6.35;65.05
74958;BME280;63741;42.624;26.276;2024-03-22T01:35:39;99947.59;;;6.39;65.56
74958;BME280;63741;42.624;26.276;2024-03-22T01:38:05;99949.59;;;6.33;66.21
74958;BME280;63741;42.624;26.276;2024-03-22T01:40:31;99945.72;;;6.56;64.80
74958;BME280;63741;42.624;26.276;2024-03-22T01:42:57;99946.91;;;6.51;65.22
74958;BME280;63741;42.624;26.276;2024-03-22T01:45:24;99946.66;;;6.40;64.91
74958;BME280;63741;42.624;26.276;2024-03-22T01:47:53;99945.53;;;6.28;66.66
74958;BME280;63741;42.624;26.276;2024-03-22T01:50:21;99948.00;;;6.31;66.70
74958;BME280;63741;42.624;26.276;2024-03-22T01:52:47;99943.19;;;6.23;65.95
74958;BME280;63741;42.624;26.276;2024-03-22T01:55:13;99938.59;;;6.43;65.82
74958;BME280;63741;42.624;26.276;2024-03-22T01:57:39;99942.75;;;6.47;67.21
74958;BME280;63741;42.624;26.276;2024-03-22T02:00:09;99945.81;;;6.39;65.49
74958;BME280;63741;42.624;26.276;2024-03-22T02:02:39;99951.59;;;6.30;64.49
74958;BME280;63741;42.624;26.276;2024-03-22T02:05:15;99950.38;;;6.20;65.11
74958;BME280;63741;42.624;26.276;2024-03-22T02:07:42;99956.88;;;5.97;64.83
74958;BME280;63741;42.624;26.276;2024-03-22T02:10:09;99963.66;;;5.83;66.05
74958;BME280;63741;42.624;26.276;2024-03-22T02:12:39;99954.44;;;6.10;65.70
74958;BME280;63741;42.624;26.276;2024-03-22T02:15:06;99955.28;;;6.10;66.09
74958;BME280;63741;42.624;26.276;2024-03-22T02:17:33;99957.69;;;5.64;66.73
74958;BME280;63741;42.624;26.276;2024-03-22T02:19:59;99946.81;;;5.72;67.28
74958;BME280;63741;42.624;26.276;2024-03-22T02:22:26;99955.19;;;5.78;67.15
74958;BME280;63741;42.624;26.276;2024-03-22T02:24:52;99958.47;;;5.49;67.89
74958;BME280;63741;42.624;26.276;2024-03-22T02:27:17;99952.75;;;5.58;67.79
74958;BME280;63741;42.624;26.276;2024-03-22T02:29:43;99958.28;;;5.36;68.41
74958;BME280;63741;42.624;26.276;2024-03-22T02:32:09;99965.19;;;5.37;68.91
74958;BME280;63741;42.624;26.276;2024-03-22T02:34:36;99966.66;;;5.43;66.29
74958;BME280;63741;42.624;26.276;2024-03-22T02:37:02;99966.97;;;5.54;67.28
74958;BME280;63741;42.624;26.276;2024-03-22T02:39:28;99973.41;;;5.81;66.93
74958;BME280;63741;42.624;26.276;2024-03-22T02:41:55;99977.13;;;5.77;65.42
74958;BME280;63741;42.624;26.276;2024-03-22T02:44:21;99982.38;;;5.60;67.87
74958;BME280;63741;42.624;26.276;2024-03-22T02:46:47;99985.78;;;5.10;68.39
74958;BME280;63741;42.624;26.276;2024-03-22T02:49:13;99976.22;;;5.26;69.16
74958;BME280;63741;42.624;26.276;2024-03-22T02:51:39;99987.03;;;5.20;68.38
74958;BME280;63741;42.624;26.276;2024-03-22T02:54:05;99995.13;;;5.16;68.40
74958;BME280;63741;42.624;26.276;2024-03-22T02:56:30;99993.06;;;5.22;67.99
74958;BME280;63741;42.624;26.276;2024-03-22T02:58:56;99983.84;;;5.31;68.62
74958;BME280;63741;42.624;26.276;2024-03-22T03:01:22;99990.50;;;5.21;68.17
74958;BME280;63741;42.624;26.276;2024-03-22T03:03:48;99994.19;;;5.51;66.99
74958;BME280;63741;42.624;26.276;2024-03-22T03:06:14;99999.34;;;5.53;66.34
74958;BME280;63741;42.624;26.276;2024-03-22T03:08:40;99997.75;;;5.68;66.49
74958;BME280;63741;42.624;26.276;2024-03-22T03:11:06;100002.03;;;5.86;65.53
74958;BME280;63741;42.624;26.276;2024-03-22T03:13:32;100005.16;;;5.60;67.22
74958;BME280;63741;42.624;26.276;2024-03-22T03:15:58;99999.34;;;5.53;67.67
74958;BME280;63741;42.624;26.276;2024-03-22T03:18:24;99992.03;;;5.42;68.09
74958;BME280;63741;42.624;26.276;2024-03-22T03:20:50;100003.06;;;5.66;67.01
74958;BME280;63741;42.624;26.276;2024-03-22T03:23:15;100005.75;;;5.82;66.08
74958;BME280;63741;42.624;26.276;2024-03-22T03:25:41;100011.84;;;5.82;65.85
74958;BME280;63741;42.624;26.276;2024-03-22T03:28:07;100006.84;;;5.61;66.62
74958;BME280;63741;42.624;26.276;2024-03-22T03:30:34;100012.66;;;5.50;66.99
74958;BME280;63741;42.624;26.276;2024-03-22T03:33:00;100007.94;;;5.39;65.76
74958;BME280;63741;42.624;26.276;2024-03-22T03:35:26;100018.25;;;5.25;66.79
74958;BME280;63741;42.624;26.276;2024-03-22T03:37:53;100009.06;;;5.16;67.11
74958;BME280;63741;42.624;26.276;2024-03-22T03:40:18;100012.50;;;5.18;67.30
74958;BME280;63741;42.624;26.276;2024-03-22T03:42:44;100020.28;;;5.20;66.92
74958;BME280;63741;42.624;26.276;2024-03-22T03:45:10;100019.44;;;5.19;67.44
74958;BME280;63741;42.624;26.276;2024-03-22T03:47:37;100024.06;;;5.14;67.43
74958;BME280;63741;42.624;26.276;2024-03-22T03:50:03;100014.94;;;5.21;68.13
74958;BME280;63741;42.624;26.276;2024-03-22T03:52:29;100015.31;;;5.31;66.76
74958;BME280;63741;42.624;26.276;2024-03-22T03:54:55;100020.59;;;5.14;66.66
74958;BME280;63741;42.624;26.276;2024-03-22T03:57:20;100031.81;;;4.98;67.45
74958;BME280;63741;42.624;26.276;2024-03-22T03:59:46;100044.59;;;4.87;69.06
74958;BME280;63741;42.624;26.276;2024-03-22T04:02:12;100043.38;;;4.75;70.26
74958;BME280;63741;42.624;26.276;2024-03-22T04:04:39;100046.97;;;4.73;71.87
74958;BME280;63741;42.624;26.276;2024-03-22T04:07:05;100053.56;;;4.81;70.64
74958;BME280;63741;42.624;26.276;2024-03-22T04:09:30;100052.00;;;4.96;70.54
74958;BME280;63741;42.624;26.276;2024-03-22T04:11:57;100054.41;;;5.01;70.84
74958;BME280;63741;42.624;26.276;2024-03-22T04:14:25;100044.38;;;4.92;70.10
74958;BME280;63741;42.624;26.276;2024-03-22T04:16:51;100057.25;;;4.96;70.95
74958;BME280;63741;42.624;26.276;2024-03-22T04:19:17;100062.50;;;4.77;71.12
74958;BME280;63741;42.624;26.276;2024-03-22T04:21:42;100067.91;;;4.74;72.33
74958;BME280;63741;42.624;26.276;2024-03-22T04:24:08;100069.59;;;4.75;72.14
74958;BME280;63741;42.624;26.276;2024-03-22T04:26:34;100069.03;;;4.88;72.57
74958;BME280;63741;42.624;26.276;2024-03-22T04:29:00;100074.53;;;4.81;72.50
74958;BME280;63741;42.624;26.276;2024-03-22T04:31:26;100074.19;;;4.89;71.61
74958;BME280;63741;42.624;26.276;2024-03-22T04:33:52;100059.94;;;4.95;71.63
74958;BME280;63741;42.624;26.276;2024-03-22T04:36:18;100075.38;;;4.82;73.22
74958;BME280;63741;42.624;26.276;2024-03-22T04:38:43;100074.53;;;4.63;74.09
74958;BME280;63741;42.624;26.276;2024-03-22T04:41:09;100074.09;;;4.34;73.39
74958;BME280;63741;42.624;26.276;2024-03-22T04:43:35;100075.16;;;4.68;70.82
74958;BME280;63741;42.624;26.276;2024-03-22T04:46:01;100076.25;;;4.82;69.48
74958;BME280;63741;42.624;26.276;2024-03-22T04:48:27;100083.09;;;4.85;70.82
74958;BME280;63741;42.624;26.276;2024-03-22T04:50:53;100076.22;;;5.01;69.76
74958;BME280;63741;42.624;26.276;2024-03-22T04:53:22;100072.75;;;5.01;70.07
74958;BME280;63741;42.624;26.276;2024-03-22T04:55:48;100082.19;;;5.05;70.53
74958;BME280;63741;42.624;26.276;2024-03-22T04:58:14;100078.91;;;5.19;69.94
74958;BME280;63741;42.624;26.276;2024-03-22T05:00:41;100080.94;;;5.48;68.83
74958;BME280;63741;42.624;26.276;2024-03-22T05:03:08;100083.03;;;5.59;66.81
74958;BME280;63741;42.624;26.276;2024-03-22T05:05:34;100083.31;;;5.53;66.50
74958;BME280;63741;42.624;26.276;2024-03-22T05:08:01;100082.25;;;5.74;66.30
74958;BME280;63741;42.624;26.276;2024-03-22T05:10:27;100082.75;;;6.00;65.61
